createdAt,value
2023-04-08T00:02:23.653Z,95412.11
2023-04-08T00:04:52.346Z,95412.78
2023-04-08T00:07:21.011Z,95416.08
2023-04-08T00:09:50.492Z,95410.78
2023-04-08T00:12:19.566Z,95415.88
2023-04-08T00:14:48.277Z,95416.55
2023-04-08T00:17:17.002Z,95414.76
2023-04-08T00:19:45.947Z,95412.22
2023-04-08T00:22:14.551Z,95414.11
2023-04-08T00:24:43.293Z,95416.63
2023-04-08T00:27:11.988Z,95409.80
2023-04-08T00:29:43.212Z,95410.98
2023-04-08T00:32:11.973Z,95411.86
2023-04-08T00:34:40.611Z,95407.89
2023-04-08T00:37:09.983Z,95410.61
2023-04-08T00:39:39.007Z,95415.66
2023-04-08T00:42:07.676Z,95415.06
2023-04-08T00:44:36.559Z,95415.20
2023-04-08T00:47:06.241Z,95417.73
2023-04-08T00:49:35.012Z,95412.83
2023-04-08T00:52:03.669Z,95415.50
2023-04-08T00:54:36.288Z,95417.70
2023-04-08T00:57:06.461Z,95418.80
2023-04-08T00:59:37.357Z,95424.64
2023-04-08T01:02:20.814Z,95424.58
2023-04-08T01:05:11.011Z,95422.55
2023-04-08T01:07:48.381Z,95421.91
2023-04-08T01:10:20.019Z,95425.88
2023-04-08T01:12:51.630Z,95425.85
2023-04-08T01:15:21.414Z,95423.95
2023-04-08T01:17:53.038Z,95422.63
2023-04-08T01:20:22.885Z,95423.84
2023-04-08T01:22:54.964Z,95422.02
2023-04-08T01:25:32.625Z,95422.55
2023-04-08T01:28:07.063Z,95422.27
2023-04-08T01:30:38.113Z,95423.70
2023-04-08T01:33:08.483Z,95422.40
2023-04-08T01:35:37.765Z,95420.92
2023-04-08T01:38:09.519Z,95422.22
2023-04-08T01:40:40.438Z,95421.20
2023-04-08T01:43:11.413Z,95416.82
2023-04-08T01:45:40.498Z,95420.04
2023-04-08T01:48:10.337Z,95427.55
2023-04-08T01:50:39.665Z,95431.60
2023-04-08T01:53:10.912Z,95428.59
2023-04-08T01:55:41.671Z,95429.34
2023-04-08T01:58:13.126Z,95433.30
2023-04-08T02:00:43.564Z,95428.14
2023-04-08T02:03:14.553Z,95434.42
2023-04-08T02:05:43.424Z,95440.70
2023-04-08T02:08:13.207Z,95439.70
2023-04-08T02:10:41.918Z,95452.93
2023-04-08T02:13:10.638Z,95452.64
2023-04-08T02:15:41.983Z,95454.25
2023-04-08T02:18:16.744Z,95452.30
2023-04-08T02:20:51.486Z,95458.45
2023-04-08T02:23:23.493Z,95458.11
2023-04-08T02:25:54.219Z,95455.44
2023-04-08T02:28:24.496Z,95458.50
2023-04-08T02:30:54.404Z,95450.30
2023-04-08T02:33:24.263Z,95452.39
2023-04-08T02:35:55.803Z,95450.60
2023-04-08T02:38:24.591Z,95451.95
2023-04-08T02:40:53.332Z,95448.51
2023-04-08T02:43:22.376Z,95447.75
2023-04-08T02:45:51.091Z,95449.30
2023-04-08T02:48:19.841Z,95452.12
2023-04-08T02:50:48.391Z,95456.11
2023-04-08T02:53:17.060Z,95451.09
2023-04-08T02:55:45.640Z,95443.83
2023-04-08T02:58:14.311Z,95448.12
2023-04-08T03:00:43.086Z,95444.27
2023-04-08T03:03:11.951Z,95446.21
2023-04-08T03:05:40.821Z,95448.27
2023-04-08T03:08:09.546Z,95454.61
2023-04-08T03:10:38.265Z,95460.41
2023-04-08T03:13:06.875Z,95457.70
2023-04-08T03:15:35.659Z,95450.42
2023-04-08T03:18:04.729Z,95448.23
2023-04-08T03:20:33.522Z,95446.34
2023-04-08T03:23:02.240Z,95447.59
2023-04-08T03:25:31.649Z,95444.08
2023-04-08T03:28:02.957Z,95447.92
2023-04-08T03:30:32.794Z,95449.58
2023-04-08T03:33:03.372Z,95456.77
2023-04-08T03:35:33.435Z,95453.60
2023-04-08T03:38:02.329Z,95456.61
2023-04-08T03:40:32.492Z,95458.01
2023-04-08T03:43:01.260Z,95457.76
2023-04-08T03:45:29.956Z,95451.34
2023-04-08T03:47:58.598Z,95459.02
2023-04-08T03:50:27.395Z,95455.05
2023-04-08T03:52:56.067Z,95454.42
2023-04-08T03:55:24.865Z,95452.55
2023-04-08T03:57:53.552Z,95449.36
2023-04-08T04:00:22.260Z,95449.33
2023-04-08T04:02:51.037Z,95450.45
2023-04-08T04:05:19.789Z,95444.92
2023-04-08T04:07:48.399Z,95448.45
2023-04-08T04:10:17.301Z,95450.31
2023-04-08T04:12:47.399Z,95446.50
2023-04-08T04:15:16.243Z,95449.17
2023-04-08T04:17:45.021Z,95446.09
2023-04-08T04:20:14.054Z,95458.42
2023-04-08T04:22:45.076Z,95454.67
2023-04-08T04:25:18.717Z,95464.73
2023-04-08T04:27:47.841Z,95460.12
2023-04-08T04:30:19.746Z,95473.55
2023-04-08T04:32:50.968Z,95468.55
2023-04-08T04:35:19.937Z,95471.36
2023-04-08T04:37:50.387Z,95469.94
2023-04-08T04:40:21.501Z,95469.73
2023-04-08T04:42:50.100Z,95473.04
2023-04-08T04:45:20.419Z,95471.64
2023-04-08T04:47:49.151Z,95471.03
2023-04-08T04:50:17.937Z,95464.01
2023-04-08T04:52:46.613Z,95461.72
2023-04-08T04:55:16.187Z,95462.96
2023-04-08T04:57:45.066Z,95466.97
2023-04-08T05:00:13.968Z,95470.01
2023-04-08T05:02:42.764Z,95475.71
2023-04-08T05:05:11.818Z,95469.79
2023-04-08T05:07:40.750Z,95478.93
2023-04-08T05:10:11.196Z,95476.63
2023-04-08T05:12:40.207Z,95478.64
2023-04-08T05:15:09.776Z,95475.54
2023-04-08T05:17:38.783Z,95479.45
2023-04-08T05:20:08.607Z,95475.64
2023-04-08T05:22:37.401Z,95482.59
2023-04-08T05:25:07.180Z,95482.59
2023-04-08T05:27:35.886Z,95475.77
2023-04-08T05:30:04.971Z,95476.30
2023-04-08T05:32:33.832Z,95476.98
2023-04-08T05:35:04.768Z,95482.31
2023-04-08T05:37:33.414Z,95486.29
2023-04-08T05:40:02.184Z,95476.45
2023-04-08T05:42:32.195Z,95477.52
2023-04-08T05:45:02.573Z,95480.70
2023-04-08T05:47:31.625Z,95482.41
2023-04-08T05:50:00.335Z,95476.52
2023-04-08T05:52:29.329Z,95477.28
2023-04-08T05:54:57.993Z,95468.77
2023-04-08T06:00:55.689Z,95474.61
2023-04-08T06:03:24.553Z,95474.77
2023-04-08T06:05:54.942Z,95470.92
2023-04-08T06:08:27.011Z,95479.09
2023-04-08T06:10:55.694Z,95471.49
2023-04-08T06:13:26.059Z,95473.52
2023-04-08T06:16:03.433Z,95466.11
2023-04-08T06:18:32.471Z,95464.04
2023-04-08T06:24:29.906Z,95469.70
2023-04-08T06:26:58.925Z,95468.63
2023-04-08T06:29:29.530Z,95469.69
2023-04-08T06:32:01.841Z,95471.22
2023-04-08T06:34:30.781Z,95466.78
2023-04-08T06:36:59.695Z,95471.61
2023-04-08T06:39:28.635Z,95472.64
2023-04-08T06:41:58.188Z,95475.92
2023-04-08T06:44:29.017Z,95477.31
2023-04-08T06:46:59.141Z,95475.97
2023-04-08T06:49:31.294Z,95472.70
2023-04-08T06:52:02.027Z,95477.69
2023-04-08T06:54:34.111Z,95477.07
2023-04-08T06:57:04.311Z,95476.22
2023-04-08T06:59:33.064Z,95480.85
2023-04-08T07:02:03.553Z,95479.73
2023-04-08T07:04:36.082Z,95482.91
2023-04-08T07:07:06.010Z,95474.97
2023-04-08T07:09:42.274Z,95482.24
2023-04-08T07:12:10.943Z,95479.40
2023-04-08T07:14:39.567Z,95473.16
2023-04-08T07:17:08.453Z,95476.38
2023-04-08T07:19:37.741Z,95478.46
2023-04-08T07:22:16.382Z,95484.29
2023-04-08T07:28:14.241Z,95485.42
2023-04-08T07:30:43.117Z,95490.98
2023-04-08T07:33:12.012Z,95491.23
2023-04-08T07:35:42.174Z,95488.63
2023-04-08T07:38:12.166Z,95487.95
2023-04-08T07:40:41.441Z,95497.89
2023-04-08T07:43:10.190Z,95498.33
2023-04-08T07:45:38.907Z,95496.63
2023-04-08T07:48:07.962Z,95455.77
2023-04-08T07:51:08.960Z,95508.50
2023-04-08T07:53:10.081Z,95505.41
2023-04-08T07:55:43.280Z,95507.30
2023-04-08T07:58:12.404Z,95514.02
2023-04-08T08:00:41.495Z,95512.73
2023-04-08T08:03:10.501Z,95516.95
2023-04-08T08:05:39.345Z,95513.37
2023-04-08T08:08:08.132Z,95521.80
2023-04-08T08:10:36.817Z,95522.27
2023-04-08T08:13:06.369Z,95525.13
2023-04-08T08:15:35.411Z,95525.25
2023-04-08T08:18:04.120Z,95523.89
2023-04-08T08:20:32.773Z,95524.11
2023-04-08T08:23:01.388Z,95512.77
2023-04-08T08:25:30.228Z,95522.05
2023-04-08T08:27:58.824Z,95519.57
2023-04-08T08:30:27.749Z,95513.48
2023-04-08T08:32:58.002Z,95513.34
2023-04-08T08:35:27.266Z,95520.45
2023-04-08T08:37:57.314Z,95522.13
2023-04-08T08:40:26.102Z,95521.52
2023-04-08T08:42:55.054Z,95525.02
2023-04-08T08:45:25.359Z,95522.27
2023-04-08T08:47:54.339Z,95531.58
2023-04-08T08:50:23.303Z,95525.80
2023-04-08T08:52:56.286Z,95523.51
2023-04-08T08:55:50.354Z,95528.04
2023-04-08T08:57:59.221Z,95519.17
2023-04-08T09:00:34.683Z,95526.75
2023-04-08T09:03:21.342Z,95520.94
2023-04-08T09:05:52.207Z,95520.34
2023-04-08T09:08:37.554Z,95527.61
2023-04-08T09:11:21.897Z,95526.25
2023-04-08T09:13:51.176Z,95527.03
2023-04-08T09:16:22.908Z,95520.88
2023-04-08T09:18:52.550Z,95525.69
2023-04-08T09:21:25.539Z,95527.15
2023-04-08T09:23:54.923Z,95525.53
2023-04-08T09:26:25.417Z,95524.28
2023-04-08T09:29:25.061Z,95520.28
2023-04-08T09:31:44.618Z,95523.14
2023-04-08T09:34:19.881Z,95518.17
2023-04-08T09:36:51.361Z,95513.58
2023-04-08T09:39:41.793Z,95480.45
2023-04-08T09:42:12.756Z,95505.10
2023-04-08T09:44:43.123Z,95509.53
2023-04-08T09:47:23.832Z,95509.33
2023-04-08T09:53:19.378Z,95502.09
2023-04-08T09:55:52.166Z,95495.87
2023-04-08T09:58:32.851Z,95494.20
2023-04-08T10:01:02.546Z,95498.45
2023-04-08T10:03:38.557Z,95490.91
2023-04-08T10:09:38.130Z,95487.38
2023-04-08T10:12:06.988Z,95478.95
2023-04-08T10:14:35.863Z,95484.50
2023-04-08T10:17:30.468Z,95484.27
2023-04-08T10:20:03.392Z,95483.45
2023-04-08T10:22:38.048Z,95484.83
2023-04-08T10:25:48.266Z,95470.09
2023-04-08T10:34:48.758Z,95475.76
2023-04-08T10:37:17.628Z,95475.84
2023-04-08T10:39:55.662Z,95459.55
2023-04-08T10:42:26.220Z,95466.11
2023-04-08T10:45:19.718Z,95465.63
2023-04-08T10:47:58.003Z,95467.76
2023-04-08T10:50:25.846Z,95462.03
2023-04-08T10:57:15.232Z,95450.66
2023-04-08T11:10:21.859Z,95429.14
2023-04-08T11:12:51.354Z,95426.78
2023-04-08T11:15:31.228Z,95428.86
2023-04-08T11:17:57.266Z,95429.09
2023-04-08T11:20:30.118Z,95423.95
2023-04-08T11:23:02.159Z,95423.93
2023-04-08T11:25:43.766Z,95421.27
2023-04-08T11:28:20.877Z,95425.85
2023-04-08T11:30:51.142Z,95418.58
2023-04-08T11:33:19.946Z,95416.61
2023-04-08T11:35:53.260Z,95405.31
2023-04-08T11:38:30.809Z,95400.55
2023-04-08T11:41:01.765Z,95406.52
2023-04-08T11:43:30.870Z,95410.73
2023-04-08T11:46:01.540Z,95401.22
2023-04-08T12:25:03.986Z,95363.75
2023-04-08T12:33:56.233Z,95360.73
2023-04-08T12:36:27.454Z,95362.48
2023-04-08T12:38:56.642Z,95358.08
2023-04-08T12:41:25.276Z,95352.90
2023-04-08T12:43:53.954Z,95352.53
2023-04-08T12:46:24.460Z,95345.34
2023-04-08T12:49:03.192Z,95350.23
2023-04-08T12:54:33.515Z,95349.66
2023-04-08T12:57:06.080Z,95356.92
2023-04-08T12:59:34.847Z,95352.23
2023-04-08T13:02:05.212Z,95364.44
2023-04-08T13:04:34.107Z,95360.19
2023-04-08T13:07:04.562Z,95365.30
2023-04-08T13:09:33.368Z,95366.92
2023-04-08T13:12:02.363Z,95371.12
2023-04-08T13:14:31.543Z,95369.37
2023-04-08T13:17:03.125Z,95373.22
2023-04-08T13:19:31.921Z,95372.84
2023-04-08T13:22:00.718Z,95370.09
2023-04-08T13:24:29.357Z,95368.00
2023-04-08T13:26:58.527Z,95362.81
2023-04-08T13:29:27.212Z,95360.03
2023-04-08T13:35:24.073Z,95359.03
2023-04-08T13:37:52.780Z,95351.39
2023-04-08T13:40:21.966Z,95349.83
2023-04-08T13:42:52.299Z,95353.88
2023-04-08T13:45:21.100Z,95357.70
2023-04-08T13:47:49.784Z,95358.85
2023-04-08T13:50:18.660Z,95352.16
2023-04-08T13:52:47.480Z,95354.63
2023-04-08T13:55:16.870Z,95349.06
2023-04-08T13:57:45.898Z,95342.36
2023-04-08T14:00:15.459Z,95346.17
2023-04-08T14:02:44.369Z,95343.50
2023-04-08T14:05:13.302Z,95347.70
2023-04-08T14:07:44.338Z,95343.71
2023-04-08T14:10:16.276Z,95342.00
2023-04-08T14:12:46.935Z,95337.31
2023-04-08T14:15:28.417Z,95338.20
2023-04-08T14:17:57.589Z,95293.96
2023-04-08T14:20:33.922Z,95343.81
2023-04-08T14:23:08.616Z,95347.67
2023-04-08T14:25:49.556Z,95343.80
2023-04-08T14:28:10.196Z,95348.32
2023-04-08T14:34:19.554Z,95335.73
2023-04-08T14:36:50.510Z,95338.19
2023-04-08T14:39:20.977Z,95334.18
2023-04-08T14:41:49.743Z,95336.06
2023-04-08T14:44:18.447Z,95336.27
2023-04-08T14:46:47.449Z,95340.98
2023-04-08T14:49:16.642Z,95341.13
2023-04-08T14:51:46.899Z,95337.39
2023-04-08T14:54:16.865Z,95347.31
2023-04-08T14:56:46.220Z,95350.22
2023-04-08T14:59:17.101Z,95351.23
2023-04-08T15:01:46.106Z,95347.67
2023-04-08T15:04:14.943Z,95345.81
2023-04-08T15:06:44.671Z,95348.48
2023-04-08T15:09:13.654Z,95343.08
2023-04-08T15:11:42.413Z,95346.27
2023-04-08T15:14:11.680Z,95352.51
2023-04-08T15:16:40.461Z,95280.55
2023-04-08T15:19:09.191Z,95284.38
2023-04-08T15:21:37.900Z,95355.44
2023-04-08T15:24:06.691Z,95358.22
2023-04-08T15:26:35.433Z,95359.22
2023-04-08T15:29:04.533Z,95363.89
2023-04-08T15:31:35.220Z,95357.41
2023-04-08T15:34:05.598Z,95359.12
2023-04-08T15:36:36.220Z,95366.23
2023-04-08T15:39:05.176Z,95364.66
2023-04-08T15:41:34.003Z,95362.16
2023-04-08T15:44:02.764Z,95363.18
2023-04-08T15:46:31.587Z,95361.88
2023-04-08T15:49:03.141Z,95366.94
2023-04-08T15:51:53.714Z,95365.90
2023-04-08T15:57:36.394Z,95364.49
2023-04-08T16:00:18.228Z,95367.09
2023-04-08T16:02:52.089Z,95363.72
2023-04-08T16:05:18.025Z,95368.09
2023-04-08T16:07:50.272Z,95361.49
2023-04-08T16:10:20.553Z,95366.63
2023-04-08T16:12:49.479Z,95374.06
2023-04-08T16:15:18.679Z,95370.46
2023-04-08T16:17:57.744Z,95374.06
2023-04-08T16:24:09.726Z,95341.21
2023-04-08T16:26:40.817Z,95383.01
2023-04-08T16:29:09.553Z,95387.09
2023-04-08T16:31:39.863Z,95388.06
2023-04-08T16:34:10.220Z,95386.79
2023-04-08T16:36:45.766Z,95390.37
2023-04-08T16:39:09.590Z,95391.48
2023-04-08T16:41:39.930Z,95390.78
2023-04-08T16:44:32.035Z,95396.67
2023-04-08T16:47:02.690Z,95398.01
2023-04-08T16:49:38.753Z,95398.89
2023-04-08T16:52:10.587Z,95397.75
2023-04-08T16:54:42.608Z,95405.56
2023-04-08T16:57:11.744Z,95406.63
2023-04-08T16:59:40.447Z,95410.13
2023-04-08T17:02:09.483Z,95410.13
2023-04-08T17:04:38.572Z,95412.99
2023-04-08T17:07:08.372Z,95406.53
2023-04-08T17:09:37.493Z,95415.66
2023-04-08T17:12:08.200Z,95415.50
2023-04-08T17:14:42.356Z,95419.57
2023-04-08T17:17:20.177Z,95423.69
2023-04-08T17:20:06.373Z,95428.77
2023-04-08T17:22:35.138Z,95438.48
2023-04-08T17:25:03.982Z,95359.75
2023-04-08T17:27:32.857Z,95438.77
2023-04-08T17:30:01.583Z,95453.91
2023-04-08T17:32:30.304Z,95458.16
2023-04-08T17:34:59.035Z,95460.42
2023-04-08T17:37:27.567Z,95467.55
2023-04-08T17:39:56.248Z,95468.73
2023-04-08T17:42:24.978Z,95470.70
2023-04-08T17:44:58.197Z,95479.60
2023-04-08T17:47:27.156Z,95486.76
2023-04-08T17:49:58.720Z,95493.31
2023-04-08T17:52:27.429Z,95496.83
2023-04-08T17:54:56.158Z,95510.91
2023-04-08T17:57:27.506Z,95514.05
2023-04-08T17:59:56.216Z,95516.22
2023-04-08T18:02:26.583Z,95521.33
2023-04-08T18:04:56.967Z,95518.73
2023-04-08T18:07:25.725Z,95524.64
2023-04-08T18:09:54.684Z,95524.88
2023-04-08T18:12:23.573Z,95524.67
2023-04-08T18:14:52.352Z,95533.27
2023-04-08T18:17:21.108Z,95530.20
2023-04-08T18:19:50.086Z,95526.84
2023-04-08T18:22:22.929Z,95532.22
2023-04-08T18:24:53.258Z,95526.32
2023-04-08T18:27:32.357Z,95526.32
2023-04-08T18:30:08.020Z,95536.00
2023-04-08T18:32:36.909Z,95542.78
2023-04-08T18:35:11.032Z,95542.98
2023-04-08T18:37:38.613Z,95545.28
2023-04-08T18:40:37.333Z,95540.43
2023-04-08T18:43:08.642Z,95542.01
2023-04-08T18:45:45.935Z,95543.99
2023-04-08T18:48:17.883Z,95540.22
2023-04-08T18:50:48.872Z,95540.78
2023-04-08T18:53:42.269Z,95541.23
2023-04-08T18:56:18.643Z,95542.67
2023-04-08T19:01:25.238Z,95550.53
2023-04-08T19:04:22.190Z,95497.23
2023-04-08T19:06:53.945Z,95554.66
2023-04-08T19:09:21.891Z,95550.84
2023-04-08T19:11:51.158Z,95558.33
2023-04-08T19:14:20.080Z,95560.45
2023-04-08T19:16:54.848Z,95561.71
2023-04-08T19:19:21.142Z,95562.64
2023-04-08T19:21:52.522Z,95567.80
2023-04-08T19:24:21.392Z,95572.68
2023-04-08T19:26:54.738Z,95494.09
2023-04-08T19:29:24.561Z,95577.33
2023-04-08T19:31:53.627Z,95581.36
2023-04-08T19:34:22.394Z,95581.55
2023-04-08T19:36:51.050Z,95585.53
2023-04-08T19:39:19.899Z,95580.04
2023-04-08T19:41:48.995Z,95586.25
2023-04-08T19:44:17.847Z,95591.38
2023-04-08T19:46:46.602Z,95592.44
2023-04-08T19:49:20.032Z,95594.64
2023-04-08T19:51:49.421Z,95596.89
2023-04-08T19:54:24.213Z,95599.55
2023-04-08T19:56:53.593Z,95593.70
2023-04-08T19:59:24.107Z,95587.80
2023-04-08T20:01:55.354Z,95593.69
2023-04-08T20:04:24.349Z,95590.88
2023-04-08T20:06:55.953Z,95593.00
2023-04-08T20:09:24.958Z,95559.54
2023-04-08T20:11:53.551Z,95585.59
2023-04-08T20:14:22.530Z,95583.36
2023-04-08T20:16:51.182Z,95582.64
2023-04-08T20:19:19.863Z,95578.84
2023-04-08T20:21:48.817Z,95580.62
2023-04-08T20:24:17.924Z,95587.52
2023-04-08T20:26:46.528Z,95593.06
2023-04-08T20:29:15.220Z,95586.35
2023-04-08T20:31:44.911Z,95584.27
2023-04-08T20:34:14.320Z,95585.80
2023-04-08T20:36:44.086Z,95591.98
2023-04-08T20:39:13.117Z,95596.89
2023-04-08T20:41:44.222Z,95594.71
2023-04-08T20:44:13.112Z,95599.50
2023-04-08T20:46:42.732Z,95589.63
2023-04-08T20:49:12.469Z,95592.59
2023-04-08T20:51:42.911Z,95596.00
2023-04-08T20:54:11.868Z,95588.61
2023-04-08T20:56:40.672Z,95585.08
2023-04-08T20:59:09.837Z,95592.65
2023-04-08T21:01:38.450Z,95587.45
2023-04-08T21:04:07.274Z,95588.63
2023-04-08T21:06:37.757Z,95597.80
2023-04-08T21:09:06.344Z,95589.74
2023-04-08T21:11:35.438Z,95594.52
2023-04-08T21:14:04.169Z,95594.97
2023-04-08T21:16:32.818Z,95589.23
2023-04-08T21:19:02.156Z,95587.43
2023-04-08T21:21:31.646Z,95583.47
2023-04-08T21:24:00.828Z,95585.14
2023-04-08T21:26:29.510Z,95585.92
2023-04-08T21:28:58.273Z,95579.20
2023-04-08T21:31:27.417Z,95585.31
2023-04-08T21:33:56.565Z,95581.13
2023-04-08T21:36:27.338Z,95584.11
2023-04-08T21:38:57.262Z,95581.55
2023-04-08T21:41:26.452Z,95581.34
2023-04-08T21:43:57.350Z,95581.20
2023-04-08T21:46:26.127Z,95578.05
2023-04-08T21:48:55.102Z,95580.20
2023-04-08T21:51:23.943Z,95582.01
2023-04-08T21:53:53.445Z,95583.08
2023-04-08T21:56:22.459Z,95574.70
2023-04-08T21:58:51.502Z,95577.36
2023-04-08T22:01:20.689Z,95575.83
2023-04-08T22:03:49.692Z,95572.53
2023-04-08T22:06:29.093Z,95572.19
2023-04-08T22:08:50.695Z,95578.27
2023-04-08T22:11:19.699Z,95553.09
2023-04-08T22:13:49.591Z,95574.99
2023-04-08T22:16:18.272Z,95566.63
2023-04-08T22:18:48.375Z,95569.72
2023-04-08T22:21:17.068Z,95566.08
2023-04-08T22:23:46.174Z,95561.24
2023-04-08T22:26:15.748Z,95561.80
2023-04-08T22:28:44.787Z,95562.90
2023-04-08T22:31:15.026Z,95563.54
2023-04-08T22:33:43.699Z,95568.61
2023-04-08T22:36:12.435Z,95571.50
2023-04-08T22:38:41.963Z,95568.05
2023-04-08T22:41:24.685Z,95569.48
2023-04-08T22:43:53.412Z,95568.49
2023-04-08T22:46:22.087Z,95566.28
2023-04-08T22:48:51.187Z,95568.60
2023-04-08T22:51:20.913Z,95575.45
2023-04-08T22:53:49.866Z,95570.62
2023-04-08T22:56:18.907Z,95566.41
2023-04-08T22:58:47.597Z,95562.67
2023-04-08T23:01:20.102Z,95562.66
2023-04-08T23:03:49.102Z,95564.86
2023-04-08T23:06:18.003Z,95563.98
2023-04-08T23:08:46.782Z,95560.00
2023-04-08T23:11:15.572Z,95556.59
2023-04-08T23:13:45.915Z,95560.89
2023-04-08T23:16:14.798Z,95556.92
2023-04-08T23:18:43.605Z,95551.75
2023-04-08T23:21:12.374Z,95547.10
2023-04-08T23:23:41.061Z,95542.78
2023-04-08T23:26:11.231Z,95540.81
2023-04-08T23:28:39.945Z,95541.46
2023-04-08T23:31:08.654Z,95536.84
2023-04-08T23:33:38.530Z,95533.63
2023-04-08T23:36:16.318Z,95536.84
2023-04-08T23:38:45.128Z,95530.65
2023-04-08T23:41:13.764Z,95535.30
2023-04-08T23:43:42.451Z,95535.73
2023-04-08T23:46:11.163Z,95511.45
2023-04-08T23:48:41.531Z,95528.64
2023-04-08T23:51:11.869Z,95523.58
2023-04-08T23:53:41.306Z,95527.30
2023-04-08T23:56:11.068Z,95526.66
2023-04-08T23:58:39.726Z,95519.83
